UAE601 OPKC-OMDB
Flight info
| Callsign | UAE601 |
|---|---|
| Flight time | 1h 42m |
| Altitude | 36000 |
| Route | MELOM A454 PASOV B540 KUPMA/N0419F240 B540 MIVEK P574 IMPED |
| Aircraft | B77W/H-SDE1E2E3FGHIJ2J3J4J5M1RWXY/LB1D1 |
Departure
| Time | 2026-04-30 06:58 |
|---|---|
| Airport | Jinnah International Airport (OPKC) |
Arrival
| Time | 2026-04-30 08:41 |
|---|---|
| Airport | Dubai International Airport (OMDB) |
| Time | Latitude | Longitude | Altitude | Speed | Heading |
|---|---|---|---|---|---|
| 2026-04-30 06:38 | 24.90246 | 67.16577 | 106 ft | 0 kts | 164° |
| 2026-04-30 06:49 | 24.90253 | 67.16575 | 107 ft | 4 kts | 162° |
| 2026-04-30 06:49 | 24.90278 | 67.16564 | 106 ft | 4 kts | 151° |
| 2026-04-30 06:50 | 24.90301 | 67.16547 | 104 ft | 4 kts | 134° |
| 2026-04-30 06:50 | 24.90315 | 67.16524 | 106 ft | 4 kts | 100° |
| 2026-04-30 06:50 | 24.90316 | 67.16509 | 107 ft | 0 kts | 74° |
| 2026-04-30 06:53 | 24.90324 | 67.16540 | 106 ft | 13 kts | 74° |
| 2026-04-30 06:53 | 24.90361 | 67.16686 | 108 ft | 21 kts | 74° |
| 2026-04-30 06:54 | 24.90400 | 67.16841 | 107 ft | 21 kts | 74° |
| 2026-04-30 06:54 | 24.90432 | 67.16976 | 108 ft | 11 kts | 76° |
| 2026-04-30 06:54 | 24.90486 | 67.17032 | 106 ft | 11 kts | 11° |
| 2026-04-30 06:54 | 24.90557 | 67.17052 | 107 ft | 11 kts | 50° |
| 2026-04-30 06:55 | 24.90587 | 67.17132 | 107 ft | 11 kts | 73° |
| 2026-04-30 06:55 | 24.90610 | 67.17215 | 107 ft | 11 kts | 73° |
| 2026-04-30 06:55 | 24.90631 | 67.17299 | 107 ft | 11 kts | 75° |
| 2026-04-30 06:55 | 24.90654 | 67.17392 | 107 ft | 15 kts | 75° |
| 2026-04-30 06:56 | 24.90696 | 67.17498 | 107 ft | 15 kts | 52° |
| 2026-04-30 06:56 | 24.90770 | 67.17582 | 107 ft | 15 kts | 45° |
| 2026-04-30 06:56 | 24.90846 | 67.17664 | 106 ft | 15 kts | 44° |
| 2026-04-30 06:56 | 24.90923 | 67.17746 | 106 ft | 15 kts | 43° |
| 2026-04-30 06:57 | 24.91000 | 67.17827 | 108 ft | 15 kts | 45° |
| 2026-04-30 06:57 | 24.91079 | 67.17903 | 108 ft | 15 kts | 19° |
| 2026-04-30 06:57 | 24.91176 | 67.17874 | 108 ft | 15 kts | 308° |
| 2026-04-30 06:57 | 24.91218 | 67.17764 | 109 ft | 18 kts | 284° |
| 2026-04-30 06:58 | 24.91167 | 67.17494 | 110 ft | 68 kts | 255° |
| 2026-04-30 06:58 | 24.90974 | 67.16728 | 111 ft | 137 kts | 255° |
| 2026-04-30 06:58 | 24.90691 | 67.15528 | 265 ft | 174 kts | 256° |
| 2026-04-30 06:58 | 24.90362 | 67.14195 | 750 ft | 191 kts | 254° |
| 2026-04-30 06:59 | 24.89978 | 67.12747 | 1358 ft | 201 kts | 248° |
| 2026-04-30 06:59 | 24.89072 | 67.11481 | 1624 ft | 226 kts | 223° |
| 2026-04-30 06:59 | 24.87847 | 67.10261 | 2010 ft | 247 kts | 226° |
| 2026-04-30 06:59 | 24.86580 | 67.08933 | 2724 ft | 254 kts | 226° |
| 2026-04-30 07:00 | 24.85284 | 67.07557 | 3440 ft | 263 kts | 227° |
| 2026-04-30 07:00 | 24.83980 | 67.06158 | 4145 ft | 270 kts | 226° |
| 2026-04-30 07:00 | 24.82620 | 67.04687 | 4888 ft | 277 kts | 226° |
| 2026-04-30 07:00 | 24.81233 | 67.03184 | 5660 ft | 281 kts | 227° |
| 2026-04-30 07:01 | 24.79837 | 67.01670 | 6511 ft | 280 kts | 226° |
| 2026-04-30 07:01 | 24.78585 | 67.00051 | 7233 ft | 275 kts | 246° |
| 2026-04-30 07:01 | 24.78112 | 66.98059 | 8003 ft | 272 kts | 270° |
| 2026-04-30 07:01 | 24.78245 | 66.95981 | 8779 ft | 274 kts | 277° |
| 2026-04-30 07:02 | 24.78480 | 66.93871 | 9481 ft | 280 kts | 277° |
| 2026-04-30 07:02 | 24.78726 | 66.91752 | 10298 ft | 279 kts | 277° |
| 2026-04-30 07:02 | 24.78972 | 66.89577 | 10739 ft | 298 kts | 277° |
| 2026-04-30 07:02 | 24.79233 | 66.87208 | 10922 ft | 325 kts | 277° |
| 2026-04-30 07:03 | 24.79509 | 66.84637 | 11173 ft | 348 kts | 277° |
| 2026-04-30 07:03 | 24.79828 | 66.81961 | 11801 ft | 354 kts | 282° |
| 2026-04-30 07:03 | 24.80766 | 66.79424 | 12520 ft | 363 kts | 301° |
| 2026-04-30 07:03 | 24.82370 | 66.77337 | 13518 ft | 362 kts | 314° |
| 2026-04-30 07:04 | 24.84207 | 66.75412 | 14329 ft | 367 kts | 315° |
| 2026-04-30 07:04 | 24.86088 | 66.73471 | 15089 ft | 373 kts | 315° |
| 2026-04-30 07:04 | 24.87995 | 66.71501 | 15887 ft | 377 kts | 315° |
| 2026-04-30 07:04 | 24.89917 | 66.69501 | 16717 ft | 381 kts | 315° |
| 2026-04-30 07:05 | 24.93782 | 66.65441 | 18296 ft | 391 kts | 315° |
| 2026-04-30 07:05 | 24.95751 | 66.63361 | 19098 ft | 391 kts | 315° |
| 2026-04-30 07:05 | 24.97710 | 66.61287 | 20033 ft | 389 kts | 314° |
| 2026-04-30 07:06 | 24.99664 | 66.59216 | 20876 ft | 391 kts | 314° |
| 2026-04-30 07:06 | 25.01636 | 66.57125 | 21647 ft | 394 kts | 314° |
| 2026-04-30 07:06 | 25.03624 | 66.55017 | 22369 ft | 397 kts | 313° |
| 2026-04-30 07:06 | 25.05419 | 66.52717 | 22940 ft | 397 kts | 301° |
| 2026-04-30 07:07 | 25.06570 | 66.49993 | 23550 ft | 399 kts | 287° |
| 2026-04-30 07:07 | 25.07261 | 66.47030 | 24113 ft | 401 kts | 284° |
| 2026-04-30 07:07 | 25.07906 | 66.44020 | 24645 ft | 406 kts | 283° |
| 2026-04-30 07:07 | 25.08554 | 66.40972 | 25180 ft | 410 kts | 283° |
| 2026-04-30 07:08 | 25.09212 | 66.37894 | 25706 ft | 414 kts | 283° |
| 2026-04-30 07:08 | 25.09884 | 66.34783 | 26219 ft | 418 kts | 284° |
| 2026-04-30 07:08 | 25.10567 | 66.31652 | 26719 ft | 422 kts | 284° |
| 2026-04-30 07:08 | 25.11260 | 66.28494 | 27212 ft | 426 kts | 284° |
| 2026-04-30 07:09 | 25.11963 | 66.25305 | 27709 ft | 429 kts | 284° |
| 2026-04-30 07:09 | 25.12673 | 66.22090 | 28151 ft | 433 kts | 284° |
| 2026-04-30 07:09 | 25.13392 | 66.18833 | 28625 ft | 437 kts | 284° |
| 2026-04-30 07:09 | 25.14113 | 66.15562 | 29046 ft | 440 kts | 284° |
| 2026-04-30 07:10 | 25.14831 | 66.12305 | 29497 ft | 443 kts | 284° |
| 2026-04-30 07:10 | 25.15560 | 66.08992 | 29932 ft | 445 kts | 284° |
| 2026-04-30 07:10 | 25.16293 | 66.05658 | 30274 ft | 447 kts | 284° |
| 2026-04-30 07:10 | 25.17029 | 66.02304 | 30617 ft | 449 kts | 284° |
| 2026-04-30 07:11 | 25.17767 | 65.98936 | 30939 ft | 452 kts | 283° |
| 2026-04-30 07:11 | 25.18508 | 65.95555 | 31229 ft | 454 kts | 283° |
| 2026-04-30 07:11 | 25.19241 | 65.92204 | 31527 ft | 456 kts | 283° |
| 2026-04-30 07:11 | 25.19984 | 65.88805 | 31869 ft | 457 kts | 283° |
| 2026-04-30 07:12 | 25.20728 | 65.85394 | 32306 ft | 455 kts | 283° |
| 2026-04-30 07:12 | 25.21465 | 65.82010 | 32756 ft | 453 kts | 283° |
| 2026-04-30 07:12 | 25.22201 | 65.78631 | 33184 ft | 452 kts | 283° |
| 2026-04-30 07:12 | 25.22935 | 65.75256 | 33602 ft | 452 kts | 283° |
| 2026-04-30 07:13 | 25.23668 | 65.71879 | 33978 ft | 451 kts | 283° |
| 2026-04-30 07:13 | 25.24398 | 65.68515 | 34322 ft | 450 kts | 283° |
| 2026-04-30 07:13 | 25.25128 | 65.65148 | 34648 ft | 450 kts | 283° |
| 2026-04-30 07:13 | 25.25856 | 65.61782 | 34971 ft | 450 kts | 283° |
| 2026-04-30 07:14 | 25.26585 | 65.58411 | 35266 ft | 450 kts | 283° |
| 2026-04-30 07:14 | 25.27312 | 65.55044 | 35580 ft | 450 kts | 283° |
| 2026-04-30 07:14 | 25.28041 | 65.51663 | 35689 ft | 455 kts | 282° |
| 2026-04-30 07:14 | 25.28774 | 65.48259 | 35729 ft | 455 kts | 282° |
| 2026-04-30 07:15 | 25.30231 | 65.41489 | 35737 ft | 450 kts | 282° |
| 2026-04-30 07:15 | 25.31657 | 65.34840 | 35756 ft | 445 kts | 282° |
| 2026-04-30 07:16 | 25.33081 | 65.28173 | 35742 ft | 443 kts | 282° |
| 2026-04-30 07:16 | 25.34493 | 65.21536 | 35741 ft | 442 kts | 282° |
| 2026-04-30 07:17 | 25.35893 | 65.14947 | 35766 ft | 444 kts | 282° |
| 2026-04-30 07:18 | 25.38020 | 65.04930 | 35746 ft | 447 kts | 282° |
| 2026-04-30 07:18 | 25.39438 | 64.98221 | 35745 ft | 449 kts | 282° |
| 2026-04-30 07:19 | 25.40859 | 64.91475 | 35749 ft | 450 kts | 281° |
| 2026-04-30 07:19 | 25.41329 | 64.84608 | 35762 ft | 449 kts | 266° |
| 2026-04-30 07:20 | 25.40306 | 64.77834 | 35743 ft | 451 kts | 255° |
| 2026-04-30 07:20 | 25.38442 | 64.71217 | 35744 ft | 451 kts | 254° |
| 2026-04-30 07:21 | 25.36540 | 64.64601 | 35742 ft | 450 kts | 254° |
| 2026-04-30 07:21 | 25.34671 | 64.57993 | 35747 ft | 450 kts | 254° |
| 2026-04-30 07:22 | 25.31905 | 64.48094 | 35743 ft | 449 kts | 254° |
| 2026-04-30 07:22 | 25.30063 | 64.41502 | 35743 ft | 449 kts | 254° |
| 2026-04-30 07:23 | 25.28221 | 64.34920 | 35756 ft | 448 kts | 254° |
| 2026-04-30 07:23 | 25.26374 | 64.28337 | 35736 ft | 448 kts | 254° |
| 2026-04-30 07:24 | 25.24524 | 64.21759 | 35751 ft | 448 kts | 254° |
| 2026-04-30 07:24 | 25.22986 | 64.16298 | 35740 ft | 448 kts | 254° |
| 2026-04-30 07:25 | 25.20819 | 64.08619 | 35742 ft | 448 kts | 254° |
| 2026-04-30 07:25 | 25.18974 | 64.02095 | 35742 ft | 448 kts | 254° |
| 2026-04-30 07:26 | 25.17416 | 63.96593 | 35738 ft | 448 kts | 254° |
| 2026-04-30 07:26 | 25.15566 | 63.90073 | 35752 ft | 448 kts | 253° |
| 2026-04-30 07:27 | 25.13700 | 63.83509 | 35738 ft | 448 kts | 253° |
| 2026-04-30 07:27 | 25.11832 | 63.76949 | 35739 ft | 448 kts | 253° |
| 2026-04-30 07:28 | 25.09960 | 63.70388 | 35738 ft | 448 kts | 253° |
| 2026-04-30 07:28 | 25.08085 | 63.63828 | 35739 ft | 449 kts | 253° |
| 2026-04-30 07:29 | 25.06206 | 63.57267 | 35749 ft | 449 kts | 253° |
| 2026-04-30 07:29 | 25.04324 | 63.50707 | 35750 ft | 449 kts | 253° |
| 2026-04-30 07:30 | 25.01496 | 63.40872 | 35745 ft | 449 kts | 253° |
| 2026-04-30 07:31 | 24.99607 | 63.34318 | 35750 ft | 448 kts | 253° |
| 2026-04-30 07:31 | 24.97715 | 63.27765 | 35743 ft | 448 kts | 253° |
| 2026-04-30 07:32 | 24.95820 | 63.21215 | 35737 ft | 448 kts | 253° |
| 2026-04-30 07:32 | 24.93924 | 63.14670 | 35736 ft | 448 kts | 253° |
| 2026-04-30 07:33 | 24.92024 | 63.08126 | 35738 ft | 448 kts | 253° |
| 2026-04-30 07:33 | 24.90124 | 63.01591 | 35746 ft | 448 kts | 253° |
| 2026-04-30 07:34 | 24.88220 | 62.95059 | 35752 ft | 448 kts | 253° |
| 2026-04-30 07:34 | 24.86315 | 62.88531 | 35738 ft | 448 kts | 253° |
| 2026-04-30 07:35 | 24.84409 | 62.82012 | 35738 ft | 448 kts | 252° |
| 2026-04-30 07:35 | 24.82499 | 62.75493 | 35752 ft | 447 kts | 252° |
| 2026-04-30 07:36 | 24.80596 | 62.69008 | 35749 ft | 448 kts | 252° |
| 2026-04-30 07:36 | 24.78680 | 62.62490 | 35752 ft | 448 kts | 252° |
| 2026-04-30 07:37 | 24.76760 | 62.55970 | 35751 ft | 448 kts | 252° |
| 2026-04-30 07:37 | 24.74830 | 62.49430 | 35752 ft | 449 kts | 252° |
| 2026-04-30 07:38 | 24.72897 | 62.42889 | 35754 ft | 450 kts | 252° |
| 2026-04-30 07:38 | 24.70957 | 62.36338 | 35755 ft | 451 kts | 252° |
| 2026-04-30 07:39 | 24.69013 | 62.29782 | 35756 ft | 451 kts | 252° |
| 2026-04-30 07:39 | 24.67061 | 62.23215 | 35754 ft | 451 kts | 252° |
| 2026-04-30 07:40 | 24.65111 | 62.16660 | 35756 ft | 451 kts | 252° |
| 2026-04-30 07:40 | 24.63157 | 62.10108 | 35760 ft | 451 kts | 252° |
| 2026-04-30 07:41 | 24.61199 | 62.03554 | 35763 ft | 451 kts | 252° |
| 2026-04-30 07:41 | 24.59242 | 61.97013 | 35761 ft | 451 kts | 252° |
| 2026-04-30 07:42 | 24.57294 | 61.90515 | 35759 ft | 451 kts | 252° |
| 2026-04-30 07:42 | 24.55330 | 61.83976 | 35761 ft | 450 kts | 252° |
| 2026-04-30 07:43 | 24.53362 | 61.77432 | 35760 ft | 450 kts | 252° |
| 2026-04-30 07:43 | 24.51391 | 61.70890 | 35758 ft | 450 kts | 252° |
| 2026-04-30 07:44 | 24.49430 | 61.64393 | 35765 ft | 450 kts | 251° |
| 2026-04-30 07:44 | 24.47454 | 61.57860 | 35764 ft | 450 kts | 251° |
| 2026-04-30 07:45 | 24.45478 | 61.51334 | 35764 ft | 450 kts | 251° |
| 2026-04-30 07:45 | 24.43499 | 61.44810 | 35771 ft | 450 kts | 251° |
| 2026-04-30 07:46 | 24.41518 | 61.38289 | 35767 ft | 450 kts | 251° |
| 2026-04-30 07:46 | 24.39632 | 61.31735 | 35768 ft | 450 kts | 256° |
| 2026-04-30 07:47 | 24.38252 | 61.25075 | 35772 ft | 450 kts | 257° |
| 2026-04-30 07:47 | 24.36883 | 61.18366 | 35773 ft | 450 kts | 257° |
| 2026-04-30 07:48 | 24.35498 | 61.11658 | 35777 ft | 450 kts | 256° |
| 2026-04-30 07:48 | 24.34102 | 61.04958 | 35778 ft | 450 kts | 256° |
| 2026-04-30 07:49 | 24.32708 | 60.98300 | 35776 ft | 450 kts | 256° |
| 2026-04-30 07:49 | 24.31300 | 60.91589 | 35773 ft | 451 kts | 256° |
| 2026-04-30 07:50 | 24.29892 | 60.84896 | 35777 ft | 451 kts | 256° |
| 2026-04-30 07:50 | 24.28480 | 60.78194 | 35774 ft | 451 kts | 256° |
| 2026-04-30 07:51 | 24.27065 | 60.71494 | 35772 ft | 451 kts | 256° |
| 2026-04-30 07:51 | 24.25645 | 60.64788 | 35779 ft | 451 kts | 256° |
| 2026-04-30 07:52 | 24.24221 | 60.58076 | 35773 ft | 452 kts | 256° |
| 2026-04-30 07:52 | 24.22805 | 60.51416 | 35776 ft | 452 kts | 256° |
| 2026-04-30 07:53 | 24.21376 | 60.44711 | 35784 ft | 452 kts | 256° |
| 2026-04-30 07:53 | 24.19942 | 60.38000 | 35782 ft | 452 kts | 256° |
| 2026-04-30 07:54 | 24.18506 | 60.31295 | 35781 ft | 451 kts | 256° |
| 2026-04-30 07:54 | 24.17071 | 60.24606 | 35782 ft | 451 kts | 256° |
| 2026-04-30 07:55 | 24.15638 | 60.17948 | 35780 ft | 451 kts | 256° |
| 2026-04-30 07:55 | 24.14196 | 60.11256 | 35782 ft | 451 kts | 255° |
| 2026-04-30 07:56 | 24.12751 | 60.04571 | 35785 ft | 451 kts | 255° |
| 2026-04-30 07:56 | 24.11305 | 59.97893 | 35784 ft | 451 kts | 255° |
| 2026-04-30 07:57 | 24.09856 | 59.91216 | 35785 ft | 451 kts | 255° |
| 2026-04-30 07:57 | 24.08405 | 59.84542 | 35785 ft | 450 kts | 255° |
| 2026-04-30 07:58 | 24.06960 | 59.77916 | 35783 ft | 450 kts | 255° |
| 2026-04-30 07:58 | 24.05503 | 59.71246 | 35786 ft | 450 kts | 255° |
| 2026-04-30 07:59 | 24.04043 | 59.64575 | 35785 ft | 450 kts | 255° |
| 2026-04-30 07:59 | 24.02580 | 59.57911 | 35789 ft | 450 kts | 255° |
| 2026-04-30 08:00 | 24.00384 | 59.47930 | 35790 ft | 450 kts | 255° |
| 2026-04-30 08:00 | 23.98919 | 59.41288 | 35789 ft | 449 kts | 255° |
| 2026-04-30 08:01 | 23.97460 | 59.34688 | 35788 ft | 449 kts | 255° |
| 2026-04-30 08:01 | 23.95989 | 59.28046 | 35794 ft | 449 kts | 255° |
| 2026-04-30 08:02 | 23.93849 | 59.18080 | 35785 ft | 449 kts | 260° |
| 2026-04-30 08:03 | 23.93931 | 59.11227 | 35798 ft | 454 kts | 275° |
| 2026-04-30 08:03 | 23.95597 | 59.04531 | 35793 ft | 460 kts | 286° |
| 2026-04-30 08:04 | 23.97797 | 58.97959 | 35785 ft | 460 kts | 286° |
| 2026-04-30 08:04 | 23.99961 | 58.91402 | 35784 ft | 461 kts | 285° |
| 2026-04-30 08:05 | 24.02091 | 58.84790 | 35794 ft | 460 kts | 285° |
| 2026-04-30 08:05 | 24.04205 | 58.78171 | 35797 ft | 460 kts | 285° |
| 2026-04-30 08:06 | 24.06312 | 58.71565 | 35787 ft | 459 kts | 285° |
| 2026-04-30 08:06 | 24.08415 | 58.64968 | 35791 ft | 459 kts | 285° |
| 2026-04-30 08:07 | 24.10514 | 58.58375 | 35789 ft | 458 kts | 285° |
| 2026-04-30 08:07 | 24.12606 | 58.51780 | 35801 ft | 458 kts | 285° |
| 2026-04-30 08:08 | 24.14690 | 58.45188 | 35801 ft | 458 kts | 285° |
| 2026-04-30 08:08 | 24.16758 | 58.38638 | 35807 ft | 458 kts | 285° |
| 2026-04-30 08:09 | 24.18836 | 58.32043 | 35797 ft | 458 kts | 285° |
| 2026-04-30 08:09 | 24.20909 | 58.25457 | 35796 ft | 457 kts | 285° |
| 2026-04-30 08:10 | 24.22979 | 58.18869 | 35796 ft | 457 kts | 285° |
| 2026-04-30 08:10 | 24.24695 | 58.13395 | 35796 ft | 456 kts | 285° |
| 2026-04-30 08:11 | 24.26754 | 58.06821 | 35796 ft | 456 kts | 285° |
| 2026-04-30 08:11 | 24.28811 | 58.00242 | 35800 ft | 456 kts | 285° |
| 2026-04-30 08:12 | 24.30865 | 57.93659 | 35801 ft | 456 kts | 285° |
| 2026-04-30 08:12 | 24.32905 | 57.87111 | 35804 ft | 456 kts | 285° |
| 2026-04-30 08:13 | 24.34952 | 57.80531 | 35801 ft | 455 kts | 285° |
| 2026-04-30 08:13 | 24.36995 | 57.73952 | 35800 ft | 455 kts | 285° |
| 2026-04-30 08:14 | 24.39033 | 57.67376 | 35798 ft | 455 kts | 285° |
| 2026-04-30 08:14 | 24.41066 | 57.60805 | 35801 ft | 454 kts | 285° |
| 2026-04-30 08:15 | 24.43095 | 57.54238 | 35800 ft | 454 kts | 285° |
| 2026-04-30 08:15 | 24.45107 | 57.47720 | 35695 ft | 453 kts | 285° |
| 2026-04-30 08:15 | 24.46122 | 57.44431 | 35164 ft | 455 kts | 285° |
| 2026-04-30 08:16 | 24.47133 | 57.41156 | 34669 ft | 451 kts | 285° |
| 2026-04-30 08:16 | 24.48136 | 57.37905 | 34152 ft | 448 kts | 285° |
| 2026-04-30 08:16 | 24.49133 | 57.34672 | 33591 ft | 445 kts | 285° |
| 2026-04-30 08:16 | 24.50122 | 57.31460 | 33021 ft | 442 kts | 285° |
| 2026-04-30 08:17 | 24.51101 | 57.28274 | 32486 ft | 439 kts | 285° |
| 2026-04-30 08:17 | 24.52074 | 57.25109 | 31955 ft | 436 kts | 285° |
| 2026-04-30 08:17 | 24.53038 | 57.21968 | 31445 ft | 432 kts | 285° |
| 2026-04-30 08:17 | 24.53982 | 57.18888 | 30938 ft | 430 kts | 285° |
| 2026-04-30 08:18 | 24.54934 | 57.15778 | 30417 ft | 427 kts | 285° |
| 2026-04-30 08:18 | 24.55879 | 57.12690 | 29898 ft | 425 kts | 285° |
| 2026-04-30 08:18 | 24.56818 | 57.09619 | 29283 ft | 423 kts | 285° |
| 2026-04-30 08:18 | 24.57750 | 57.06570 | 28737 ft | 419 kts | 285° |
| 2026-04-30 08:19 | 24.58674 | 57.03543 | 28200 ft | 416 kts | 285° |
| 2026-04-30 08:19 | 24.59590 | 57.00542 | 27699 ft | 412 kts | 285° |
| 2026-04-30 08:19 | 24.60497 | 56.97565 | 27192 ft | 409 kts | 285° |
| 2026-04-30 08:19 | 24.61398 | 56.94608 | 26694 ft | 406 kts | 285° |
| 2026-04-30 08:20 | 24.62291 | 56.91676 | 26213 ft | 403 kts | 285° |
| 2026-04-30 08:20 | 24.63163 | 56.88806 | 25718 ft | 400 kts | 285° |
| 2026-04-30 08:20 | 24.64081 | 56.85927 | 25221 ft | 399 kts | 288° |
| 2026-04-30 08:20 | 24.65218 | 56.83143 | 24731 ft | 399 kts | 292° |
| 2026-04-30 08:21 | 24.66605 | 56.80480 | 24241 ft | 399 kts | 297° |
| 2026-04-30 08:21 | 24.68055 | 56.77878 | 23757 ft | 397 kts | 297° |
| 2026-04-30 08:21 | 24.69497 | 56.75291 | 23247 ft | 395 kts | 297° |
| 2026-04-30 08:21 | 24.70910 | 56.72747 | 22722 ft | 393 kts | 297° |
| 2026-04-30 08:22 | 24.72327 | 56.70183 | 22198 ft | 389 kts | 296° |
| 2026-04-30 08:22 | 24.73727 | 56.67644 | 21732 ft | 386 kts | 296° |
| 2026-04-30 08:22 | 24.75112 | 56.65126 | 21261 ft | 383 kts | 296° |
| 2026-04-30 08:22 | 24.76487 | 56.62622 | 20794 ft | 380 kts | 296° |
| 2026-04-30 08:23 | 24.77831 | 56.60172 | 20346 ft | 378 kts | 296° |
| 2026-04-30 08:23 | 24.79187 | 56.57699 | 19905 ft | 376 kts | 296° |
| 2026-04-30 08:23 | 24.80534 | 56.55239 | 19422 ft | 374 kts | 296° |
| 2026-04-30 08:23 | 24.81877 | 56.52786 | 18959 ft | 372 kts | 297° |
| 2026-04-30 08:24 | 24.83210 | 56.50352 | 18485 ft | 371 kts | 297° |
| 2026-04-30 08:24 | 24.84540 | 56.47921 | 18016 ft | 370 kts | 297° |
| 2026-04-30 08:24 | 24.85864 | 56.45501 | 17489 ft | 368 kts | 297° |
| 2026-04-30 08:24 | 24.87143 | 56.43079 | 17006 ft | 360 kts | 292° |
| 2026-04-30 08:25 | 24.87977 | 56.40504 | 16563 ft | 354 kts | 281° |
| 2026-04-30 08:25 | 24.88397 | 56.37849 | 16096 ft | 350 kts | 273° |
| 2026-04-30 08:25 | 24.88384 | 56.35189 | 15649 ft | 346 kts | 264° |
| 2026-04-30 08:25 | 24.88208 | 56.32582 | 15214 ft | 345 kts | 265° |
| 2026-04-30 08:26 | 24.88050 | 56.29943 | 14756 ft | 344 kts | 265° |
| 2026-04-30 08:26 | 24.87983 | 56.27324 | 14322 ft | 341 kts | 273° |
| 2026-04-30 08:26 | 24.88429 | 56.24751 | 13906 ft | 343 kts | 284° |
| 2026-04-30 08:26 | 24.89315 | 56.22322 | 13576 ft | 342 kts | 294° |
| 2026-04-30 08:27 | 24.90479 | 56.20028 | 13128 ft | 341 kts | 296° |
| 2026-04-30 08:27 | 24.91650 | 56.17791 | 12700 ft | 341 kts | 297° |
| 2026-04-30 08:27 | 24.92816 | 56.15555 | 12530 ft | 331 kts | 297° |
| 2026-04-30 08:27 | 24.93942 | 56.13379 | 12384 ft | 322 kts | 296° |
| 2026-04-30 08:28 | 24.95031 | 56.11257 | 12241 ft | 314 kts | 296° |
| 2026-04-30 08:28 | 24.96089 | 56.09185 | 12102 ft | 306 kts | 296° |
| 2026-04-30 08:28 | 24.97123 | 56.07170 | 11985 ft | 297 kts | 297° |
| 2026-04-30 08:28 | 24.98323 | 56.05360 | 11908 ft | 287 kts | 307° |
| 2026-04-30 08:29 | 24.99668 | 56.03773 | 11719 ft | 281 kts | 309° |
| 2026-04-30 08:29 | 25.01005 | 56.02236 | 11559 ft | 273 kts | 309° |
| 2026-04-30 08:29 | 25.02291 | 56.00725 | 11394 ft | 268 kts | 308° |
| 2026-04-30 08:29 | 25.03551 | 55.99220 | 11278 ft | 266 kts | 308° |
| 2026-04-30 08:30 | 25.04796 | 55.97715 | 11117 ft | 265 kts | 308° |
| 2026-04-30 08:30 | 25.05775 | 55.96531 | 11031 ft | 265 kts | 308° |
| 2026-04-30 08:30 | 25.06997 | 55.95043 | 10913 ft | 264 kts | 308° |
| 2026-04-30 08:30 | 25.07979 | 55.93363 | 10473 ft | 261 kts | 281° |
| 2026-04-30 08:31 | 25.07950 | 55.91408 | 10173 ft | 255 kts | 252° |
| 2026-04-30 08:31 | 25.07174 | 55.89659 | 9859 ft | 254 kts | 237° |
| 2026-04-30 08:31 | 25.05998 | 55.88222 | 9548 ft | 253 kts | 224° |
| 2026-04-30 08:31 | 25.04664 | 55.86958 | 9216 ft | 252 kts | 223° |
| 2026-04-30 08:32 | 25.03321 | 55.85708 | 8895 ft | 252 kts | 223° |
| 2026-04-30 08:32 | 25.01995 | 55.84455 | 8593 ft | 248 kts | 227° |
| 2026-04-30 08:32 | 25.01093 | 55.82896 | 8291 ft | 241 kts | 255° |
| 2026-04-30 08:32 | 25.00956 | 55.81094 | 8012 ft | 241 kts | 275° |
| 2026-04-30 08:33 | 25.01370 | 55.79278 | 7716 ft | 248 kts | 294° |
| 2026-04-30 08:33 | 25.02233 | 55.77607 | 7429 ft | 254 kts | 301° |
| 2026-04-30 08:33 | 25.03199 | 55.75946 | 7119 ft | 258 kts | 301° |
| 2026-04-30 08:33 | 25.04173 | 55.74281 | 6783 ft | 259 kts | 301° |
| 2026-04-30 08:34 | 25.05130 | 55.72609 | 6496 ft | 257 kts | 302° |
| 2026-04-30 08:34 | 25.06071 | 55.70946 | 6234 ft | 255 kts | 302° |
| 2026-04-30 08:34 | 25.06995 | 55.69305 | 5944 ft | 253 kts | 303° |
| 2026-04-30 08:34 | 25.07919 | 55.67657 | 5641 ft | 251 kts | 303° |
| 2026-04-30 08:35 | 25.08835 | 55.66017 | 5355 ft | 250 kts | 303° |
| 2026-04-30 08:35 | 25.09747 | 55.64384 | 5041 ft | 249 kts | 303° |
| 2026-04-30 08:35 | 25.10641 | 55.62780 | 4835 ft | 244 kts | 304° |
| 2026-04-30 08:35 | 25.11511 | 55.61221 | 4765 ft | 233 kts | 304° |
| 2026-04-30 08:36 | 25.12348 | 55.59766 | 4621 ft | 214 kts | 304° |
| 2026-04-30 08:36 | 25.13107 | 55.58423 | 4343 ft | 200 kts | 304° |
| 2026-04-30 08:36 | 25.13820 | 55.57142 | 3935 ft | 192 kts | 304° |
| 2026-04-30 08:36 | 25.14512 | 55.55896 | 3484 ft | 187 kts | 305° |
| 2026-04-30 08:37 | 25.15164 | 55.54719 | 3131 ft | 175 kts | 306° |
| 2026-04-30 08:37 | 25.15796 | 55.53581 | 2960 ft | 178 kts | 306° |
| 2026-04-30 08:37 | 25.16464 | 55.52378 | 2713 ft | 187 kts | 305° |
| 2026-04-30 08:37 | 25.17131 | 55.51169 | 2459 ft | 180 kts | 306° |
| 2026-04-30 08:38 | 25.17760 | 55.50030 | 2261 ft | 168 kts | 307° |
| 2026-04-30 08:38 | 25.18362 | 55.48946 | 2096 ft | 164 kts | 307° |
| 2026-04-30 08:38 | 25.18969 | 55.47841 | 1937 ft | 170 kts | 305° |
| 2026-04-30 08:38 | 25.19563 | 55.46705 | 1728 ft | 168 kts | 303° |
| 2026-04-30 08:39 | 25.20156 | 55.45646 | 1526 ft | 163 kts | 306° |
| 2026-04-30 08:39 | 25.20774 | 55.44578 | 1321 ft | 165 kts | 303° |
| 2026-04-30 08:39 | 25.21369 | 55.43536 | 1077 ft | 155 kts | 304° |
| 2026-04-30 08:39 | 25.21902 | 55.42504 | 814 ft | 152 kts | 302° |
| 2026-04-30 08:40 | 25.22433 | 55.41508 | 585 ft | 150 kts | 302° |
| 2026-04-30 08:40 | 25.22963 | 55.40566 | 329 ft | 137 kts | 303° |
| 2026-04-30 08:40 | 25.23490 | 55.39673 | 106 ft | 140 kts | 303° |
| 2026-04-30 08:40 | 25.23977 | 55.38783 | 27 ft | 124 kts | 305° |
| 2026-04-30 08:41 | 25.24353 | 55.38111 | 27 ft | 81 kts | 301° |
| 2026-04-30 08:41 | 25.24570 | 55.37711 | 27 ft | 56 kts | 302° |
| 2026-04-30 08:41 | 25.24734 | 55.37407 | 27 ft | 26 kts | 292° |
| 2026-04-30 08:41 | 25.24776 | 55.37210 | 27 ft | 26 kts | 276° |
| 2026-04-30 08:42 | 25.24788 | 55.37062 | 27 ft | 16 kts | 273° |
| 2026-04-30 08:42 | 25.24805 | 55.36944 | 27 ft | 16 kts | 292° |
| 2026-04-30 08:42 | 25.24849 | 55.36837 | 27 ft | 16 kts | 288° |
| 2026-04-30 08:42 | 25.24869 | 55.36719 | 27 ft | 16 kts | 285° |
| 2026-04-30 08:43 | 25.24920 | 55.36614 | 27 ft | 16 kts | 301° |
| 2026-04-30 08:43 | 25.24971 | 55.36509 | 27 ft | 16 kts | 290° |
| 2026-04-30 08:43 | 25.24985 | 55.36391 | 27 ft | 16 kts | 273° |
| 2026-04-30 08:43 | 25.25009 | 55.36277 | 26 ft | 16 kts | 296° |
| 2026-04-30 08:44 | 25.25059 | 55.36182 | 27 ft | 6 kts | 302° |
| 2026-04-30 08:44 | 25.25083 | 55.36141 | 27 ft | 6 kts | 301° |
| 2026-04-30 08:44 | 25.25067 | 55.36098 | 27 ft | 7 kts | 224° |
| 2026-04-30 08:44 | 25.25032 | 55.36069 | 27 ft | 2 kts | 213° |
| 2026-04-30 08:45 | 25.25018 | 55.36059 | 27 ft | 3 kts | 211° |
| 2026-04-30 08:45 | 25.25011 | 55.36055 | 27 ft | 0 kts | 210° |